createdAt,value
2023-05-19T00:01:20.953Z,100.00
2023-05-19T00:04:02.512Z,100.00
2023-05-19T00:06:32.878Z,100.00
2023-05-19T00:09:05.791Z,100.00
2023-05-19T00:11:36.172Z,100.00
2023-05-19T00:14:06.976Z,100.00
2023-05-19T00:16:34.519Z,100.00
2023-05-19T00:19:04.634Z,100.00
2023-05-19T00:21:32.754Z,100.00
2023-05-19T00:24:00.385Z,100.00
2023-05-19T00:26:28.335Z,100.00
2023-05-19T00:29:00.942Z,100.00
2023-05-19T00:31:27.914Z,100.00
2023-05-19T00:33:55.564Z,100.00
2023-05-19T00:36:22.575Z,100.00
2023-05-19T00:38:51.090Z,100.00
2023-05-19T00:41:18.442Z,100.00
2023-05-19T00:43:47.688Z,100.00
2023-05-19T00:46:14.525Z,100.00
2023-05-19T00:48:44.631Z,100.00
2023-05-19T00:51:14.744Z,100.00
2023-05-19T00:53:41.786Z,100.00
2023-05-19T00:56:08.886Z,100.00
2023-05-19T00:58:37.132Z,100.00
2023-05-19T01:01:06.894Z,100.00
2023-05-19T01:03:36.130Z,100.00
2023-05-19T01:06:05.283Z,100.00
2023-05-19T01:08:34.353Z,100.00
2023-05-19T01:11:02.273Z,100.00
2023-05-19T01:13:29.736Z,100.00
2023-05-19T01:16:35.262Z,100.00
2023-05-19T01:19:38.688Z,100.00
2023-05-19T01:22:48.626Z,100.00
2023-05-19T01:25:37.426Z,100.00
2023-05-19T01:28:49.324Z,100.00
2023-05-19T01:31:23.920Z,100.00
2023-05-19T01:33:54.591Z,100.00
2023-05-19T01:36:23.724Z,100.00
2023-05-19T01:38:54.123Z,100.00
2023-05-19T01:41:23.060Z,100.00
2023-05-19T01:43:52.096Z,100.00
2023-05-19T01:46:19.310Z,100.00
2023-05-19T01:48:47.878Z,100.00
2023-05-19T01:51:14.767Z,100.00
2023-05-19T01:53:42.959Z,100.00
2023-05-19T01:56:10.126Z,100.00
2023-05-19T01:59:03.943Z,100.00
2023-05-19T02:01:53.039Z,100.00
2023-05-19T02:04:50.908Z,100.00
2023-05-19T02:07:37.381Z,100.00
2023-05-19T02:10:22.802Z,100.00
2023-05-19T02:12:54.063Z,100.00
2023-05-19T02:15:38.664Z,100.00
2023-05-19T02:18:09.462Z,100.00
2023-05-19T02:20:36.392Z,100.00
2023-05-19T02:23:03.246Z,100.00
2023-05-19T02:25:30.349Z,100.00
2023-05-19T02:27:59.339Z,100.00
2023-05-19T02:30:31.763Z,100.00
2023-05-19T02:33:00.645Z,100.00
2023-05-19T02:35:28.077Z,100.00
2023-05-19T02:37:54.929Z,100.00
2023-05-19T02:40:22.362Z,100.00
2023-05-19T02:42:49.865Z,100.00
2023-05-19T02:45:17.024Z,100.00
2023-05-19T02:47:43.872Z,100.00
2023-05-19T02:50:11.048Z,100.00
2023-05-19T02:52:37.920Z,100.00
2023-05-19T02:55:05.397Z,100.00
2023-05-19T02:57:35.007Z,100.00
2023-05-19T03:00:02.440Z,100.00
2023-05-19T03:02:29.688Z,100.00
2023-05-19T03:04:56.645Z,100.00
2023-05-19T03:07:25.369Z,100.00
2023-05-19T03:09:53.032Z,100.00
2023-05-19T03:12:19.938Z,100.00
2023-05-19T03:14:47.529Z,100.00
2023-05-19T03:17:14.427Z,100.00
2023-05-19T03:19:41.649Z,100.00
2023-05-19T03:22:08.550Z,100.00
2023-05-19T03:24:36.332Z,100.00
2023-05-19T03:27:05.841Z,100.00
2023-05-19T03:29:33.133Z,100.00
2023-05-19T03:32:00.465Z,100.00
2023-05-19T03:34:27.540Z,100.00
2023-05-19T03:36:55.294Z,100.00
2023-05-19T03:39:22.968Z,100.00
2023-05-19T03:41:49.981Z,100.00
2023-05-19T03:44:16.941Z,100.00
2023-05-19T03:46:44.668Z,100.00
2023-05-19T03:49:34.640Z,100.00
2023-05-19T03:52:24.353Z,100.00
2023-05-19T03:54:59.788Z,100.00
2023-05-19T03:57:26.978Z,100.00
2023-05-19T03:59:53.970Z,100.00
2023-05-19T04:02:21.668Z,100.00
2023-05-19T04:04:48.777Z,100.00
2023-05-19T04:07:15.761Z,100.00
2023-05-19T04:09:43.080Z,100.00
2023-05-19T04:12:10.123Z,100.00
2023-05-19T04:14:36.932Z,100.00
2023-05-19T04:17:04.047Z,100.00
2023-05-19T04:19:30.891Z,100.00
2023-05-19T04:21:58.546Z,100.00
2023-05-19T04:24:25.444Z,100.00
2023-05-19T04:26:53.645Z,100.00
2023-05-19T04:29:20.624Z,100.00
2023-05-19T04:31:47.541Z,100.00
2023-05-19T04:34:14.434Z,100.00
2023-05-19T04:36:41.613Z,100.00
2023-05-19T04:39:12.157Z,100.00
2023-05-19T04:41:44.618Z,100.00
2023-05-19T04:44:13.838Z,100.00
2023-05-19T04:46:42.717Z,100.00
2023-05-19T04:49:12.651Z,100.00
2023-05-19T04:51:42.410Z,100.00
2023-05-19T04:54:10.200Z,100.00
2023-05-19T04:56:37.330Z,100.00
2023-05-19T04:59:04.724Z,100.00
2023-05-19T05:01:33.818Z,100.00
2023-05-19T05:04:02.761Z,100.00
2023-05-19T05:06:31.779Z,100.00
2023-05-19T05:09:04.314Z,100.00
2023-05-19T05:11:32.245Z,100.00
2023-05-19T05:14:00.826Z,100.00
2023-05-19T05:16:30.051Z,100.00
2023-05-19T05:18:58.764Z,100.00
2023-05-19T05:21:26.590Z,100.00
2023-05-19T05:23:54.291Z,100.00
2023-05-19T05:26:33.289Z,100.00
2023-05-19T05:29:01.482Z,100.00
2023-05-19T05:31:29.312Z,100.00
2023-05-19T05:33:56.449Z,100.00
2023-05-19T05:36:27.464Z,100.00
2023-05-19T05:38:54.821Z,100.00
2023-05-19T05:41:23.080Z,100.00
2023-05-19T05:43:52.076Z,100.00
2023-05-19T05:46:19.030Z,100.00
2023-05-19T05:48:47.081Z,100.00
2023-05-19T05:51:14.381Z,100.00
2023-05-19T05:53:48.693Z,100.00
2023-05-19T05:56:16.589Z,100.00
2023-05-19T05:58:49.727Z,100.00
2023-05-19T06:01:17.776Z,100.00
2023-05-19T06:03:45.382Z,100.00
2023-05-19T06:06:16.070Z,100.00
2023-05-19T06:08:42.971Z,100.00
2023-05-19T06:11:11.278Z,100.00
2023-05-19T06:13:43.060Z,100.00
2023-05-19T06:16:16.191Z,100.00
2023-05-19T06:18:46.319Z,100.00
2023-05-19T06:21:13.590Z,100.00
2023-05-19T06:23:41.630Z,100.00
2023-05-19T06:26:10.544Z,100.00
2023-05-19T06:28:37.868Z,100.00
2023-05-19T06:31:06.035Z,100.00
2023-05-19T06:33:43.357Z,98.70
2023-05-19T06:36:10.684Z,100.00
2023-05-19T06:38:39.378Z,100.00
2023-05-19T06:41:07.003Z,99.66
2023-05-19T06:43:34.251Z,98.99
2023-05-19T06:46:04.753Z,95.91
2023-05-19T06:48:33.523Z,92.79
2023-05-19T06:51:00.664Z,92.85
2023-05-19T06:53:27.768Z,91.13
2023-05-19T06:55:59.985Z,92.56
2023-05-19T06:58:31.580Z,93.07
2023-05-19T07:00:59.852Z,93.28
2023-05-19T07:03:31.534Z,92.94
2023-05-19T07:05:59.457Z,93.05
2023-05-19T07:08:27.919Z,85.99
2023-05-19T07:10:57.755Z,80.04
2023-05-19T07:13:27.247Z,77.46
2023-05-19T07:15:58.224Z,72.38
2023-05-19T07:18:31.703Z,67.86
2023-05-19T07:20:59.003Z,64.41
2023-05-19T07:23:26.289Z,61.13
2023-05-19T07:25:56.843Z,59.30
2023-05-19T07:28:23.880Z,59.01
2023-05-19T07:30:50.883Z,57.65
2023-05-19T07:33:17.777Z,54.10
2023-05-19T07:35:45.574Z,54.25
2023-05-19T07:38:12.550Z,51.28
2023-05-19T07:40:39.438Z,50.50
2023-05-19T07:43:06.335Z,50.08
2023-05-19T07:45:33.318Z,49.43
2023-05-19T07:48:00.261Z,49.50
2023-05-19T07:50:27.340Z,51.15
2023-05-19T07:52:54.185Z,48.06
2023-05-19T07:55:23.169Z,46.73
2023-05-19T07:57:51.126Z,44.83
2023-05-19T08:00:18.410Z,43.60
2023-05-19T08:02:45.735Z,45.76
2023-05-19T08:05:12.778Z,45.56
2023-05-19T08:07:39.596Z,43.15
2023-05-19T08:10:07.054Z,40.14
2023-05-19T08:12:33.933Z,40.97
2023-05-19T08:15:01.787Z,42.14
2023-05-19T08:17:28.981Z,42.79
2023-05-19T08:19:55.898Z,42.11
2023-05-19T08:22:22.923Z,41.97
2023-05-19T08:24:51.668Z,42.88
2023-05-19T08:27:18.571Z,41.32
2023-05-19T08:29:45.438Z,41.79
2023-05-19T08:32:13.382Z,42.70
2023-05-19T08:34:41.309Z,41.29
2023-05-19T08:37:08.195Z,43.24
2023-05-19T08:39:35.120Z,42.76
2023-05-19T08:42:02.503Z,43.68
2023-05-19T08:44:30.943Z,42.09
2023-05-19T08:47:04.979Z,40.82
2023-05-19T08:49:37.089Z,42.13
2023-05-19T08:52:49.503Z,41.49
2023-05-19T08:55:55.410Z,41.43
2023-05-19T08:58:23.210Z,38.88
2023-05-19T09:00:51.246Z,40.19
2023-05-19T09:05:49.948Z,37.63
2023-05-19T09:08:16.849Z,38.30
2023-05-19T09:10:43.675Z,37.50
2023-05-19T09:13:10.724Z,36.69
2023-05-19T09:15:41.424Z,36.54
2023-05-19T09:18:11.600Z,36.88
2023-05-19T09:20:41.534Z,35.45
2023-05-19T09:23:16.876Z,37.88
2023-05-19T09:25:52.354Z,37.96
2023-05-19T09:28:30.647Z,36.77
2023-05-19T09:31:01.232Z,34.36
2023-05-19T09:33:29.630Z,34.09
2023-05-19T09:35:57.249Z,35.32
2023-05-19T09:38:26.368Z,35.93
2023-05-19T09:40:58.296Z,36.24
2023-05-19T09:43:33.397Z,35.54
2023-05-19T09:46:07.862Z,35.71
2023-05-19T09:48:36.568Z,36.47
2023-05-19T09:51:07.717Z,34.71
2023-05-19T09:53:35.271Z,35.07
2023-05-19T09:56:04.066Z,35.53
2023-05-19T09:58:35.417Z,36.57
2023-05-19T10:01:04.844Z,36.46
2023-05-19T10:03:35.283Z,36.13
2023-05-19T10:06:05.389Z,36.28
2023-05-19T10:08:34.346Z,38.05
2023-05-19T10:11:03.161Z,36.44
2023-05-19T10:13:32.097Z,37.00
2023-05-19T10:16:00.623Z,37.21
2023-05-19T10:18:29.550Z,36.01
2023-05-19T10:20:58.081Z,36.29
2023-05-19T10:23:26.070Z,37.17
2023-05-19T10:25:58.838Z,36.65
2023-05-19T10:28:43.203Z,37.57
2023-05-19T10:31:19.429Z,37.71
2023-05-19T10:34:33.607Z,36.87
2023-05-19T10:37:37.760Z,37.15
2023-05-19T10:40:21.058Z,37.36
2023-05-19T10:43:12.638Z,36.69
2023-05-19T10:45:49.424Z,37.46
2023-05-19T10:48:17.417Z,36.33
2023-05-19T10:50:46.773Z,35.92
2023-05-19T10:53:19.292Z,35.19
2023-05-19T10:55:59.070Z,34.57
2023-05-19T10:58:44.053Z,35.02
2023-05-19T11:01:16.995Z,34.67
2023-05-19T11:03:57.402Z,34.60
2023-05-19T11:06:33.314Z,35.00
2023-05-19T11:09:12.421Z,33.37
2023-05-19T11:11:49.958Z,32.60
2023-05-19T11:14:26.794Z,34.32
2023-05-19T11:16:59.085Z,34.00
2023-05-19T11:19:34.634Z,34.34
2023-05-19T11:22:12.959Z,33.51
2023-05-19T11:24:50.164Z,34.71
2023-05-19T11:27:33.220Z,31.70
2023-05-19T11:30:11.607Z,32.15
2023-05-19T11:32:39.524Z,32.31
2023-05-19T11:35:08.188Z,31.44
2023-05-19T11:37:35.904Z,32.90
2023-05-19T11:40:08.924Z,33.05
2023-05-19T11:42:37.061Z,32.54
2023-05-19T11:45:06.373Z,31.84
2023-05-19T11:47:42.117Z,30.39
2023-05-19T11:50:20.553Z,30.96
2023-05-19T11:52:47.971Z,30.49
2023-05-19T11:55:19.344Z,31.22
2023-05-19T11:58:03.029Z,31.31
2023-05-19T12:00:39.590Z,31.58
2023-05-19T12:03:08.311Z,29.75
2023-05-19T12:05:48.151Z,29.61
2023-05-19T12:08:18.463Z,30.44
2023-05-19T12:10:51.818Z,27.82
2023-05-19T12:13:19.913Z,28.61
2023-05-19T12:15:46.984Z,28.74
2023-05-19T12:18:14.040Z,28.35
2023-05-19T12:20:41.253Z,28.29
2023-05-19T12:23:08.953Z,28.76
2023-05-19T12:25:36.399Z,29.54
2023-05-19T12:28:03.891Z,28.95
2023-05-19T12:30:32.901Z,28.64
2023-05-19T12:33:02.729Z,29.16
2023-05-19T12:35:34.603Z,29.43
2023-05-19T12:38:06.231Z,29.54
2023-05-19T12:40:40.223Z,29.90
2023-05-19T12:43:18.498Z,29.79
2023-05-19T12:45:45.533Z,30.76
2023-05-19T12:48:12.869Z,31.17
2023-05-19T12:50:39.953Z,30.28
2023-05-19T12:53:12.158Z,30.14
2023-05-19T12:55:44.768Z,31.17
2023-05-19T12:58:12.985Z,30.39
2023-05-19T13:00:45.676Z,30.13
2023-05-19T13:03:20.555Z,29.18
2023-05-19T13:05:50.953Z,28.55
2023-05-19T13:08:21.648Z,28.79
2023-05-19T13:10:51.563Z,29.39
2023-05-19T13:13:18.518Z,29.24
2023-05-19T13:15:49.071Z,29.95
2023-05-19T13:18:17.635Z,29.58
2023-05-19T13:20:47.330Z,29.27
2023-05-19T13:23:16.180Z,29.87
2023-05-19T13:25:43.667Z,29.58
2023-05-19T13:28:11.150Z,28.42
2023-05-19T13:30:40.587Z,29.71
2023-05-19T13:33:08.170Z,27.85
2023-05-19T13:35:38.857Z,28.10
2023-05-19T13:38:07.941Z,27.31
2023-05-19T13:40:35.219Z,27.23
2023-05-19T13:43:05.983Z,28.09
2023-05-19T13:45:33.856Z,28.20
2023-05-19T13:48:00.994Z,29.43
2023-05-19T13:50:28.109Z,28.70
2023-05-19T13:52:55.015Z,29.49
2023-05-19T13:55:23.300Z,29.04
2023-05-19T13:57:50.931Z,29.68
2023-05-19T14:00:19.373Z,29.43
2023-05-19T14:02:46.516Z,28.75
2023-05-19T14:05:13.631Z,29.57
2023-05-19T14:07:40.627Z,28.85
2023-05-19T14:10:08.405Z,28.29
2023-05-19T14:12:49.463Z,27.68
2023-05-19T14:15:23.785Z,28.04
2023-05-19T14:17:50.933Z,28.46
2023-05-19T14:20:21.971Z,27.80
2023-05-19T14:22:48.874Z,28.46
2023-05-19T14:25:16.052Z,28.31
2023-05-19T14:27:42.906Z,28.15
2023-05-19T14:30:10.450Z,29.25
2023-05-19T14:32:37.268Z,28.21
2023-05-19T14:35:04.959Z,27.10
2023-05-19T14:37:32.289Z,28.50
2023-05-19T14:39:59.376Z,27.76
2023-05-19T14:42:26.241Z,27.72
2023-05-19T14:44:53.091Z,27.58
2023-05-19T14:47:19.911Z,27.61
2023-05-19T14:49:47.072Z,28.24
2023-05-19T14:52:13.886Z,28.14
2023-05-19T14:54:40.827Z,27.61
2023-05-19T14:57:08.159Z,27.32
2023-05-19T14:59:38.545Z,27.46
2023-05-19T15:02:05.975Z,28.55
2023-05-19T15:04:32.861Z,29.31
2023-05-19T15:07:09.925Z,29.43
2023-05-19T15:09:37.638Z,29.74
2023-05-19T15:12:04.698Z,30.46
2023-05-19T15:14:31.727Z,29.41
2023-05-19T15:16:59.185Z,29.94
2023-05-19T15:19:26.520Z,30.52
2023-05-19T15:21:53.636Z,30.52
2023-05-19T15:24:20.555Z,29.27
2023-05-19T15:26:47.601Z,29.31
2023-05-19T15:29:14.535Z,29.86
2023-05-19T15:31:41.572Z,29.44
2023-05-19T15:34:08.692Z,28.37
2023-05-19T15:36:35.600Z,29.67
2023-05-19T15:39:03.711Z,29.51
2023-05-19T15:41:30.720Z,29.68
2023-05-19T15:44:00.241Z,29.48
2023-05-19T15:46:27.439Z,28.22
2023-05-19T15:48:54.782Z,28.74
2023-05-19T15:51:22.583Z,28.51
2023-05-19T15:53:49.495Z,29.24
2023-05-19T15:56:16.579Z,30.02
2023-05-19T15:58:43.582Z,30.79
2023-05-19T16:01:10.690Z,30.55
2023-05-19T16:03:38.083Z,30.51
2023-05-19T16:06:05.372Z,30.75
2023-05-19T16:08:32.310Z,30.41
2023-05-19T16:10:59.199Z,30.01
2023-05-19T16:13:26.047Z,29.56
2023-05-19T16:15:53.038Z,28.60
2023-05-19T16:18:19.969Z,29.86
2023-05-19T16:20:46.875Z,29.94
2023-05-19T16:23:13.772Z,31.56
2023-05-19T16:25:41.518Z,31.05
2023-05-19T16:28:08.943Z,31.69
2023-05-19T16:30:36.401Z,31.37
2023-05-19T16:33:03.539Z,31.33
2023-05-19T16:35:30.963Z,31.03
2023-05-19T16:37:57.999Z,31.14
2023-05-19T16:40:24.918Z,30.45
2023-05-19T16:42:54.616Z,30.96
2023-05-19T16:45:21.496Z,31.33
2023-05-19T16:47:48.383Z,31.20
2023-05-19T16:50:15.379Z,32.50
2023-05-19T16:52:42.424Z,32.47
2023-05-19T16:55:09.754Z,32.74
2023-05-19T16:57:36.643Z,33.46
2023-05-19T17:00:04.029Z,34.71
2023-05-19T17:02:31.053Z,34.67
2023-05-19T17:04:57.960Z,34.60
2023-05-19T17:07:24.773Z,34.48
2023-05-19T17:09:53.009Z,35.17
2023-05-19T17:12:21.349Z,35.20
2023-05-19T17:14:49.927Z,35.41
2023-05-19T17:17:16.818Z,35.61
2023-05-19T17:19:43.940Z,35.94
2023-05-19T17:22:10.758Z,36.49
2023-05-19T17:24:37.585Z,36.90
2023-05-19T17:27:04.851Z,37.23
2023-05-19T17:29:31.736Z,37.14
2023-05-19T17:31:58.610Z,36.63
2023-05-19T17:34:25.568Z,37.06
2023-05-19T17:36:52.375Z,36.96
2023-05-19T17:39:20.247Z,37.09
2023-05-19T17:41:47.194Z,37.96
2023-05-19T17:44:14.878Z,38.28
2023-05-19T17:46:41.769Z,38.17
2023-05-19T17:49:10.521Z,38.69
2023-05-19T17:51:37.905Z,39.05
2023-05-19T17:54:05.473Z,38.63
2023-05-19T17:56:39.692Z,39.05
2023-05-19T17:59:07.120Z,38.80
2023-05-19T18:01:34.428Z,38.73
2023-05-19T18:04:02.415Z,38.72
2023-05-19T18:06:31.845Z,38.67
2023-05-19T18:09:03.279Z,38.92
2023-05-19T18:11:30.097Z,39.24
2023-05-19T18:13:57.448Z,39.09
2023-05-19T18:16:25.582Z,39.52
2023-05-19T18:18:52.569Z,39.65
2023-05-19T18:21:19.493Z,40.28
2023-05-19T18:23:46.973Z,39.68
2023-05-19T18:26:14.212Z,40.08
2023-05-19T18:28:42.025Z,39.66
2023-05-19T18:31:10.997Z,39.58
2023-05-19T18:33:37.809Z,40.16
2023-05-19T18:36:04.895Z,40.37
2023-05-19T18:38:31.749Z,40.18
2023-05-19T18:41:00.697Z,40.68
2023-05-19T18:43:30.108Z,41.45
2023-05-19T18:45:57.265Z,41.37
2023-05-19T18:48:28.371Z,41.81
2023-05-19T18:50:55.289Z,42.06
2023-05-19T18:53:22.725Z,42.34
2023-05-19T18:55:49.660Z,42.59
2023-05-19T18:58:20.634Z,42.79
2023-05-19T19:00:47.556Z,43.21
2023-05-19T19:03:14.457Z,43.73
2023-05-19T19:05:41.721Z,43.99
2023-05-19T19:08:08.627Z,44.64
2023-05-19T19:10:39.034Z,44.36
2023-05-19T19:13:06.548Z,45.10
2023-05-19T19:15:33.382Z,44.68
2023-05-19T19:18:00.545Z,45.32
2023-05-19T19:20:27.452Z,45.81
2023-05-19T19:22:54.330Z,45.87
2023-05-19T19:25:23.259Z,46.70
2023-05-19T19:27:51.226Z,46.74
2023-05-19T19:30:18.090Z,47.09
2023-05-19T19:32:44.981Z,47.64
2023-05-19T19:35:11.947Z,47.65
2023-05-19T19:37:38.870Z,48.37
2023-05-19T19:40:06.805Z,48.60
2023-05-19T19:42:34.069Z,49.58
2023-05-19T19:45:01.000Z,49.42
2023-05-19T19:47:27.915Z,49.95
2023-05-19T19:49:55.907Z,50.04
2023-05-19T19:52:22.722Z,50.74
2023-05-19T19:54:49.628Z,51.04
2023-05-19T19:57:19.152Z,51.08
2023-05-19T19:59:46.029Z,51.79
2023-05-19T20:02:14.132Z,52.37
2023-05-19T20:04:41.306Z,52.38
2023-05-19T20:07:08.796Z,52.51
2023-05-19T20:09:35.818Z,53.05
2023-05-19T20:12:02.666Z,52.83
2023-05-19T20:14:29.523Z,53.52
2023-05-19T20:16:56.674Z,53.40
2023-05-19T20:19:27.963Z,53.19
2023-05-19T20:21:57.124Z,53.81
2023-05-19T20:24:23.941Z,54.26
2023-05-19T20:26:50.817Z,54.36
2023-05-19T20:29:17.691Z,54.90
2023-05-19T20:31:46.601Z,55.55
2023-05-19T20:34:13.526Z,55.28
2023-05-19T20:36:40.892Z,56.07
2023-05-19T20:39:09.687Z,56.31
2023-05-19T20:41:36.715Z,56.82
2023-05-19T20:44:03.992Z,57.14
2023-05-19T20:46:30.938Z,57.67
2023-05-19T20:48:57.832Z,58.37
2023-05-19T20:51:25.343Z,57.95
2023-05-19T20:53:52.196Z,57.99
2023-05-19T20:56:19.894Z,58.23
2023-05-19T20:58:46.760Z,58.85
2023-05-19T21:01:13.587Z,59.06
2023-05-19T21:03:40.476Z,60.75
2023-05-19T21:06:07.338Z,59.85
2023-05-19T21:08:34.285Z,59.87
2023-05-19T21:11:01.069Z,59.94
2023-05-19T21:13:27.877Z,60.78
2023-05-19T21:15:57.062Z,61.51
2023-05-19T21:18:23.976Z,62.71
2023-05-19T21:20:50.824Z,62.12
2023-05-19T21:23:17.709Z,62.74
2023-05-19T21:25:45.396Z,62.20
2023-05-19T21:28:12.581Z,63.15
2023-05-19T21:30:39.407Z,62.98
2023-05-19T21:33:06.276Z,62.83
2023-05-19T21:35:33.133Z,63.16
2023-05-19T21:38:12.031Z,62.47
2023-05-19T21:40:48.522Z,63.94
2023-05-19T21:43:15.473Z,63.80
2023-05-19T21:45:42.311Z,63.84
2023-05-19T21:48:09.254Z,64.00
2023-05-19T21:50:38.036Z,64.22
2023-05-19T21:53:05.628Z,64.66
2023-05-19T21:55:32.460Z,64.27
2023-05-19T21:58:00.963Z,64.42
2023-05-19T22:00:29.308Z,64.15
2023-05-19T22:02:56.234Z,64.42
2023-05-19T22:05:23.121Z,65.00
2023-05-19T22:07:50.079Z,64.73
2023-05-19T22:10:17.444Z,65.06
2023-05-19T22:12:44.272Z,66.35
2023-05-19T22:15:13.262Z,65.72
2023-05-19T22:17:40.228Z,66.56
2023-05-19T22:20:08.161Z,66.64
2023-05-19T22:22:35.414Z,66.84
2023-05-19T22:25:03.841Z,66.97
2023-05-19T22:27:30.786Z,66.87
2023-05-19T22:29:59.643Z,66.89
2023-05-19T22:32:26.688Z,66.92
2023-05-19T22:34:53.679Z,67.27
2023-05-19T22:37:24.005Z,66.74
2023-05-19T22:39:51.535Z,68.14
2023-05-19T22:42:18.657Z,67.86
2023-05-19T22:44:45.892Z,68.34
2023-05-19T22:47:13.910Z,69.31
2023-05-19T22:49:41.593Z,70.06
2023-05-19T22:52:11.063Z,70.91
2023-05-19T22:54:38.292Z,71.44
2023-05-19T22:57:05.545Z,72.82
2023-05-19T22:59:32.410Z,73.33
2023-05-19T23:01:59.288Z,74.67
2023-05-19T23:04:26.460Z,76.19
2023-05-19T23:06:53.346Z,76.12
2023-05-19T23:09:20.204Z,77.40
2023-05-19T23:11:47.398Z,78.16
2023-05-19T23:14:14.259Z,79.29
2023-05-19T23:16:41.132Z,80.50
2023-05-19T23:19:08.270Z,80.02
2023-05-19T23:21:35.202Z,79.64
2023-05-19T23:24:02.122Z,81.71
2023-05-19T23:26:28.927Z,82.57
2023-05-19T23:28:55.822Z,82.70
2023-05-19T23:31:22.782Z,82.79
2023-05-19T23:33:49.793Z,84.42
2023-05-19T23:36:17.714Z,84.19
2023-05-19T23:38:44.559Z,84.91
2023-05-19T23:41:11.482Z,83.85
2023-05-19T23:43:38.298Z,85.06
2023-05-19T23:46:05.632Z,85.12
2023-05-19T23:48:36.608Z,87.18
2023-05-19T23:51:04.543Z,86.34
2023-05-19T23:53:31.465Z,87.17
2023-05-19T23:55:58.813Z,87.41
2023-05-19T23:58:25.944Z,88.10
